createdAt,value
2022-11-25T00:01:12.682Z,100856.97
2022-11-25T00:03:40.283Z,100858.19
2022-11-25T00:06:10.018Z,100856.69
2022-11-25T00:08:37.335Z,100862.78
2022-11-25T00:11:04.581Z,100852.59
2022-11-25T00:13:31.813Z,100858.53
2022-11-25T00:16:03.083Z,100849.69
2022-11-25T00:18:29.907Z,100853.44
2022-11-25T00:20:56.399Z,100839.69
2022-11-25T00:23:22.927Z,100840.72
2022-11-25T00:25:49.673Z,100848.88
2022-11-25T00:28:17.441Z,100840.72
2022-11-25T00:30:44.366Z,100841.03
2022-11-25T00:33:10.951Z,100846.47
2022-11-25T00:35:37.419Z,100862.41
2022-11-25T00:38:03.895Z,100846.97
2022-11-25T00:40:30.386Z,100864.28
2022-11-25T00:43:15.668Z,100872.06
2022-11-25T00:45:42.955Z,100873.25
2022-11-25T00:48:09.506Z,100871.03
2022-11-25T00:50:36.036Z,100875.63
2022-11-25T00:53:02.577Z,100875.63
2022-11-25T00:55:49.004Z,100865.97
2022-11-25T00:58:15.613Z,100880.41
2022-11-25T01:00:42.114Z,100870.72
2022-11-25T01:03:08.613Z,100870.72
2022-11-25T01:05:35.117Z,100888.53
2022-11-25T01:08:01.582Z,100867.50
2022-11-25T01:10:28.133Z,100872.06
2022-11-25T01:12:54.669Z,100871.44
2022-11-25T01:15:21.143Z,100877.69
2022-11-25T01:17:47.593Z,100878.88
2022-11-25T01:20:16.530Z,100876.00
2022-11-25T01:22:43.029Z,100881.59
2022-11-25T01:25:09.595Z,100871.22
2022-11-25T01:27:36.155Z,100854.75
2022-11-25T01:30:02.658Z,100876.84
2022-11-25T01:32:29.145Z,100896.88
2022-11-25T01:34:55.637Z,100891.44
2022-11-25T01:37:22.215Z,100878.69
2022-11-25T01:39:48.658Z,100878.16
2022-11-25T01:42:15.110Z,100879.00
2022-11-25T01:44:42.630Z,100869.84
2022-11-25T01:47:15.194Z,100876.16
2022-11-25T01:50:11.147Z,100858.28
2022-11-25T01:52:45.663Z,100865.44
2022-11-25T01:55:18.870Z,100875.97
2022-11-25T01:58:08.485Z,100887.53
2022-11-25T02:00:36.371Z,100888.72
2022-11-25T02:03:03.084Z,100885.31
2022-11-25T02:05:51.559Z,100884.31
2022-11-25T02:08:19.552Z,100887.84
2022-11-25T02:10:46.669Z,100880.03
2022-11-25T02:13:13.267Z,100888.66
2022-11-25T02:15:39.823Z,100869.66
2022-11-25T02:18:06.783Z,100873.56
2022-11-25T02:20:33.625Z,100881.72
2022-11-25T02:23:09.257Z,100857.94
2022-11-25T02:25:37.717Z,100867.63
2022-11-25T02:28:07.107Z,100859.47
2022-11-25T02:30:34.271Z,100864.59
2022-11-25T02:33:01.256Z,100867.13
2022-11-25T02:35:30.986Z,100879.22
2022-11-25T02:38:22.149Z,100865.28
2022-11-25T02:40:56.634Z,100874.59
2022-11-25T02:43:24.372Z,100889.34
2022-11-25T02:46:15.078Z,100889.69
2022-11-25T02:49:07.807Z,100887.31
2022-11-25T02:51:32.054Z,100887.47
2022-11-25T02:53:59.219Z,100887.94
2022-11-25T02:56:29.130Z,100883.88
2022-11-25T02:58:55.673Z,100893.03
2022-11-25T03:01:22.282Z,100917.47
2022-11-25T03:03:49.406Z,100905.91
2022-11-25T03:06:15.906Z,100895.06
2022-11-25T03:08:42.405Z,100895.19
2022-11-25T03:11:08.956Z,100898.47
2022-11-25T03:13:35.534Z,100925.75
2022-11-25T03:16:02.054Z,100918.81
2022-11-25T03:18:28.729Z,100923.22
2022-11-25T03:20:56.109Z,100930.34
2022-11-25T03:23:23.074Z,100926.78
2022-11-25T03:25:49.971Z,100928.97
2022-11-25T03:28:16.457Z,100936.38
2022-11-25T03:30:42.989Z,100937.75
2022-11-25T03:33:09.468Z,100945.50
2022-11-25T03:35:36.064Z,100951.09
2022-11-25T03:38:02.634Z,100958.03
2022-11-25T03:40:29.195Z,100950.31
2022-11-25T03:42:55.644Z,100937.94
2022-11-25T03:45:22.174Z,100959.66
2022-11-25T03:47:48.678Z,100970.50
2022-11-25T03:50:16.311Z,100963.72
2022-11-25T03:52:42.921Z,100971.16
2022-11-25T03:55:10.026Z,100963.84
2022-11-25T03:57:36.536Z,100975.19
2022-11-25T04:00:04.499Z,100969.22
2022-11-25T04:02:31.076Z,100953.94
2022-11-25T04:04:57.852Z,100967.03
2022-11-25T04:07:24.521Z,100969.91
2022-11-25T04:09:51.021Z,100968.34
2022-11-25T04:12:36.021Z,100956.88
2022-11-25T04:15:03.083Z,100969.59
2022-11-25T04:17:29.689Z,100981.44
2022-11-25T04:19:56.261Z,100988.75
2022-11-25T04:22:22.762Z,100978.72
2022-11-25T04:24:49.293Z,100982.94
2022-11-25T04:27:15.785Z,100993.78
2022-11-25T04:29:42.249Z,100982.09
2022-11-25T04:32:08.778Z,100998.38
2022-11-25T04:34:35.544Z,100949.34
2022-11-25T04:37:02.228Z,100994.34
2022-11-25T04:39:28.722Z,101001.31
2022-11-25T04:42:15.158Z,101003.84
2022-11-25T04:44:41.601Z,101005.88
2022-11-25T04:47:08.337Z,101008.44
2022-11-25T04:49:35.016Z,101016.91
2022-11-25T04:52:01.508Z,101022.16
2022-11-25T04:54:27.970Z,101004.88
2022-11-25T04:56:54.439Z,101025.75
2022-11-25T04:59:39.308Z,101017.75
2022-11-25T05:02:15.679Z,101015.88
2022-11-25T05:04:43.718Z,101015.50
2022-11-25T05:07:10.692Z,101032.47
2022-11-25T05:09:38.768Z,101032.66
2022-11-25T05:12:07.092Z,101031.41
2022-11-25T05:14:35.715Z,101019.84
2022-11-25T05:17:04.058Z,101014.13
2022-11-25T05:19:31.085Z,101034.66
2022-11-25T05:21:57.798Z,101047.53
2022-11-25T05:24:25.430Z,101044.97
2022-11-25T05:26:52.132Z,101046.44
2022-11-25T05:29:18.665Z,101056.28
2022-11-25T05:31:45.297Z,101059.59
2022-11-25T05:34:11.779Z,101070.22
2022-11-25T05:36:38.252Z,101077.66
2022-11-25T05:39:04.769Z,101074.25
2022-11-25T05:41:31.322Z,101081.84
2022-11-25T05:43:57.856Z,101080.81
2022-11-25T05:46:24.465Z,101070.13
2022-11-25T05:48:55.471Z,101068.28
2022-11-25T05:51:22.362Z,101084.28
2022-11-25T05:53:48.830Z,101077.03
2022-11-25T05:56:15.338Z,101076.03
2022-11-25T05:58:41.856Z,101077.19
2022-11-25T06:01:12.958Z,101089.03
2022-11-25T06:03:39.874Z,101090.59
2022-11-25T06:06:07.674Z,101086.47
2022-11-25T06:08:35.439Z,101083.75
2022-11-25T06:11:06.893Z,101086.09
2022-11-25T06:13:33.482Z,101090.38
2022-11-25T06:16:06.287Z,101086.09
2022-11-25T06:18:34.286Z,101095.50
2022-11-25T06:21:00.807Z,101098.78
2022-11-25T06:23:27.395Z,101106.38
2022-11-25T06:25:53.884Z,101106.13
2022-11-25T06:28:20.421Z,101108.97
2022-11-25T06:30:47.060Z,101117.81
2022-11-25T06:33:13.737Z,101121.84
2022-11-25T06:35:40.451Z,101127.97
2022-11-25T06:38:06.936Z,101129.94
2022-11-25T06:40:33.433Z,101131.78
2022-11-25T06:42:59.915Z,101134.09
2022-11-25T06:45:26.413Z,101141.66
2022-11-25T06:47:53.666Z,101134.50
2022-11-25T06:50:20.135Z,101144.63
2022-11-25T06:52:46.638Z,101138.44
2022-11-25T06:55:13.275Z,101145.59
2022-11-25T06:57:39.835Z,101147.75
2022-11-25T07:00:06.997Z,101148.75
2022-11-25T07:02:40.675Z,101147.00
2022-11-25T07:05:09.467Z,101134.41
2022-11-25T07:07:36.502Z,101148.50
2022-11-25T07:10:03.595Z,101152.59
2022-11-25T07:12:30.601Z,101155.47
2022-11-25T07:14:57.272Z,101156.09
2022-11-25T07:17:23.804Z,101168.78
2022-11-25T07:19:50.319Z,101162.91
2022-11-25T07:22:16.844Z,101175.47
2022-11-25T07:24:43.331Z,101179.44
2022-11-25T07:27:09.846Z,101181.16
2022-11-25T07:30:10.308Z,101182.69
2022-11-25T07:32:22.975Z,101194.13
2022-11-25T07:34:51.168Z,101201.81
2022-11-25T07:37:18.069Z,101193.50
2022-11-25T07:39:44.569Z,101203.19
2022-11-25T07:42:11.040Z,101210.84
2022-11-25T07:44:37.514Z,101219.84
2022-11-25T07:47:04.012Z,101221.94
2022-11-25T07:49:30.481Z,101231.03
2022-11-25T07:51:59.785Z,101229.63
2022-11-25T07:54:26.704Z,101239.25
2022-11-25T07:56:53.616Z,101237.38
2022-11-25T07:59:21.841Z,101247.22
2022-11-25T08:01:55.408Z,101238.25
2022-11-25T08:04:22.638Z,101246.09
2022-11-25T08:06:51.631Z,101241.72
2022-11-25T08:09:21.159Z,101252.13
2022-11-25T08:11:48.633Z,101252.00
2022-11-25T08:14:15.911Z,101251.06
2022-11-25T08:16:42.759Z,101261.34
2022-11-25T08:19:13.751Z,101258.81
2022-11-25T08:21:40.510Z,101269.69
2022-11-25T08:24:07.090Z,101262.47
2022-11-25T08:26:37.575Z,101269.91
2022-11-25T08:29:05.932Z,101267.81
2022-11-25T08:31:36.010Z,101266.13
2022-11-25T08:34:03.195Z,101270.28
2022-11-25T08:36:30.932Z,101271.44
2022-11-25T08:38:59.027Z,101273.25
2022-11-25T08:41:30.949Z,101272.13
2022-11-25T08:43:58.865Z,101281.63
2022-11-25T08:46:29.468Z,101278.47
2022-11-25T08:48:56.570Z,101285.03
2022-11-25T08:51:26.832Z,101285.50
2022-11-25T08:53:53.370Z,101283.13
2022-11-25T08:56:25.672Z,101283.84
2022-11-25T08:58:53.262Z,101289.28
2022-11-25T09:01:20.055Z,101289.47
2022-11-25T09:03:49.385Z,101299.13
2022-11-25T09:06:16.589Z,101312.59
2022-11-25T09:08:43.946Z,101304.47
2022-11-25T09:11:10.980Z,101322.41
2022-11-25T09:13:37.684Z,101303.69
2022-11-25T09:16:04.711Z,101318.34
2022-11-25T09:18:32.529Z,101315.13
2022-11-25T09:20:59.120Z,101321.44
2022-11-25T09:23:26.553Z,101324.16
2022-11-25T09:25:55.230Z,101339.34
2022-11-25T09:28:22.747Z,101349.75
2022-11-25T09:30:49.606Z,101347.38
2022-11-25T09:33:16.570Z,101346.34
2022-11-25T09:35:43.092Z,101356.00
2022-11-25T09:38:09.621Z,101360.09
2022-11-25T09:40:43.490Z,101368.00
2022-11-25T09:43:34.573Z,101366.28
2022-11-25T09:46:43.111Z,101382.47
2022-11-25T09:49:22.835Z,101382.09
2022-11-25T09:52:07.518Z,101391.38
2022-11-25T09:54:40.187Z,101385.66
2022-11-25T09:57:21.577Z,101386.97
2022-11-25T09:59:56.202Z,101394.88
2022-11-25T10:02:36.877Z,101384.25
2022-11-25T10:05:07.561Z,101389.91
2022-11-25T10:07:40.290Z,101394.81
2022-11-25T10:10:19.823Z,101403.97
2022-11-25T10:12:47.738Z,101401.31
2022-11-25T10:15:23.847Z,101414.19
2022-11-25T10:17:56.252Z,101416.19
2022-11-25T10:20:28.978Z,101418.56
2022-11-25T10:23:00.853Z,101420.28
2022-11-25T10:25:35.420Z,101419.91
2022-11-25T10:28:11.062Z,101417.81
2022-11-25T10:30:46.078Z,101415.69
2022-11-25T10:33:21.080Z,101420.06
2022-11-25T10:36:06.681Z,101432.88
2022-11-25T10:38:39.752Z,101444.69
2022-11-25T10:41:06.263Z,101442.91
2022-11-25T10:43:33.699Z,101455.53
2022-11-25T10:46:14.636Z,101452.09
2022-11-25T10:48:46.630Z,101451.47
2022-11-25T10:51:34.344Z,101452.13
2022-11-25T10:54:27.308Z,101453.97
2022-11-25T10:56:56.987Z,101454.16
2022-11-25T10:59:34.152Z,101465.13
2022-11-25T11:02:16.100Z,101471.75
2022-11-25T11:04:57.554Z,101484.00
2022-11-25T11:07:27.285Z,101478.19
2022-11-25T11:09:54.448Z,101497.19
2022-11-25T11:12:25.279Z,101501.09
2022-11-25T11:14:53.563Z,101505.53
2022-11-25T11:17:33.235Z,101503.50
2022-11-25T11:20:17.120Z,101506.50
2022-11-25T11:22:55.658Z,101523.53
2022-11-25T11:25:23.316Z,101523.00
2022-11-25T11:27:49.811Z,101525.22
2022-11-25T11:30:21.743Z,101534.09
2022-11-25T11:32:56.174Z,101539.28
2022-11-25T11:35:22.727Z,101537.53
2022-11-25T11:37:54.767Z,101547.88
2022-11-25T11:40:27.584Z,101547.25
2022-11-25T11:42:56.970Z,101540.97
2022-11-25T11:45:41.513Z,101572.50
2022-11-25T11:48:28.493Z,101558.09
2022-11-25T11:51:07.310Z,101556.50
2022-11-25T11:53:53.398Z,101551.25
2022-11-25T11:56:55.631Z,101557.34
2022-11-25T11:59:25.309Z,101552.94
2022-11-25T12:02:16.685Z,101549.16
2022-11-25T12:04:52.404Z,101555.44
2022-11-25T12:07:22.821Z,101568.97
2022-11-25T12:10:08.224Z,101570.09
2022-11-25T12:12:56.531Z,101572.75
2022-11-25T12:15:37.822Z,101577.47
2022-11-25T12:18:36.016Z,101578.69
2022-11-25T12:21:05.600Z,101587.25
2022-11-25T12:23:41.084Z,101592.41
2022-11-25T12:26:13.751Z,101607.47
2022-11-25T12:28:57.918Z,101596.31
2022-11-25T12:31:38.027Z,101592.06
2022-11-25T12:34:27.673Z,101602.53
2022-11-25T12:37:03.668Z,101604.28
2022-11-25T12:39:39.069Z,101608.00
2022-11-25T12:42:15.533Z,101617.78
2022-11-25T12:44:54.370Z,101617.59
2022-11-25T12:47:21.860Z,101620.47
2022-11-25T12:49:49.600Z,101624.16
2022-11-25T12:52:28.787Z,101630.22
2022-11-25T12:55:33.706Z,101636.09
2022-11-25T12:58:18.268Z,101629.38
2022-11-25T13:01:07.222Z,101629.75
2022-11-25T13:04:11.754Z,101624.44
2022-11-25T13:06:47.281Z,101623.72
2022-11-25T13:09:28.903Z,101628.31
2022-11-25T13:12:08.528Z,101626.25
2022-11-25T13:15:07.471Z,101631.50
2022-11-25T13:17:40.417Z,101635.28
2022-11-25T13:20:33.306Z,101644.84
2022-11-25T13:23:05.511Z,101648.13
2022-11-25T13:25:32.836Z,101658.22
2022-11-25T13:28:04.517Z,101654.09
2022-11-25T13:30:33.991Z,101643.50
2022-11-25T13:33:23.630Z,101659.78
2022-11-25T13:35:53.645Z,101676.88
2022-11-25T13:38:29.191Z,101671.75
2022-11-25T13:41:00.497Z,101671.06
2022-11-25T13:43:27.685Z,101669.72
2022-11-25T13:45:55.311Z,101682.34
2022-11-25T13:48:24.817Z,101676.91
2022-11-25T13:51:10.595Z,101691.06
2022-11-25T13:53:38.164Z,101700.47
2022-11-25T13:56:25.831Z,101699.09
2022-11-25T13:59:15.606Z,101708.34
2022-11-25T14:01:52.782Z,101712.78
2022-11-25T14:04:33.130Z,101712.59
2022-11-25T14:07:36.632Z,101714.31
2022-11-25T14:10:45.808Z,101723.69
2022-11-25T14:13:46.285Z,101726.97
2022-11-25T14:16:22.089Z,101740.59
2022-11-25T14:21:53.259Z,101739.41
2022-11-25T14:24:30.436Z,101743.91
2022-11-25T14:26:58.750Z,101754.03
2022-11-25T14:29:34.248Z,101746.50
2022-11-25T14:32:05.407Z,101752.16
2022-11-25T14:34:43.171Z,101754.88
2022-11-25T14:37:16.714Z,101754.38
2022-11-25T14:40:20.654Z,101754.69
2022-11-25T14:42:50.402Z,101760.06
2022-11-25T14:45:24.397Z,101766.81
2022-11-25T14:47:51.097Z,101770.34
2022-11-25T14:50:34.217Z,101770.06
2022-11-25T14:53:08.153Z,101773.47
2022-11-25T14:55:35.353Z,101784.59
2022-11-25T14:58:01.913Z,101794.38
2022-11-25T15:00:28.586Z,101804.75
2022-11-25T15:03:03.592Z,101805.59
2022-11-25T15:05:35.866Z,101806.34
2022-11-25T15:08:04.744Z,101811.81
2022-11-25T15:10:39.330Z,101821.78
2022-11-25T15:13:13.844Z,101824.63
2022-11-25T15:15:40.963Z,101822.16
2022-11-25T15:18:09.990Z,101835.16
2022-11-25T15:20:36.652Z,101836.13
2022-11-25T15:23:03.335Z,101850.78
2022-11-25T15:25:29.875Z,101858.94
2022-11-25T15:27:56.431Z,101860.47
2022-11-25T15:30:23.219Z,101863.16
2022-11-25T15:32:50.557Z,101867.78
2022-11-25T15:35:25.058Z,101871.22
2022-11-25T15:37:54.246Z,101869.97
2022-11-25T15:40:40.712Z,101873.81
2022-11-25T15:43:19.280Z,101891.50
2022-11-25T15:45:46.675Z,101900.72
2022-11-25T15:48:17.499Z,101898.91
2022-11-25T15:50:44.060Z,101912.91
2022-11-25T15:53:24.814Z,101918.53
2022-11-25T15:55:53.660Z,101924.84
2022-11-25T15:58:21.120Z,101921.84
2022-11-25T16:01:23.506Z,101925.56
2022-11-25T16:03:51.201Z,101933.75
2022-11-25T16:06:27.322Z,101944.78
2022-11-25T16:09:00.083Z,101946.78
2022-11-25T16:11:33.099Z,101960.81
2022-11-25T16:14:19.816Z,101971.41
2022-11-25T16:16:47.353Z,101972.69
2022-11-25T16:19:19.750Z,101977.84
2022-11-25T16:21:51.577Z,101992.31
2022-11-25T16:24:37.753Z,101986.41
2022-11-25T16:27:07.364Z,101997.44
2022-11-25T16:29:40.964Z,101998.72
2022-11-25T16:32:19.099Z,102008.03
2022-11-25T16:34:45.942Z,102015.47
2022-11-25T16:37:12.787Z,102017.47
2022-11-25T16:39:39.741Z,102018.88
2022-11-25T16:42:07.431Z,102031.75
2022-11-25T16:44:35.212Z,102030.44
2022-11-25T16:47:02.217Z,102029.13
2022-11-25T16:49:30.376Z,102038.69
2022-11-25T16:51:56.911Z,102039.84
2022-11-25T16:54:23.738Z,102041.09
2022-11-25T16:56:52.384Z,102048.81
2022-11-25T16:59:40.016Z,102062.09
2022-11-25T17:02:25.295Z,102069.50
2022-11-25T17:04:51.956Z,102069.91
2022-11-25T17:07:34.878Z,102075.63
2022-11-25T17:10:01.715Z,102075.03
2022-11-25T17:12:30.569Z,102087.88
2022-11-25T17:14:59.848Z,102088.53
2022-11-25T17:17:27.058Z,102088.69
2022-11-25T17:19:53.976Z,102094.38
2022-11-25T17:22:23.667Z,102093.78
2022-11-25T17:24:50.299Z,102095.00
2022-11-25T17:27:29.278Z,102092.44
2022-11-25T17:29:57.165Z,102091.97
2022-11-25T17:32:23.993Z,102099.00
2022-11-25T17:34:50.574Z,102098.28
2022-11-25T17:37:19.120Z,102112.84
2022-11-25T17:39:45.619Z,102115.94
2022-11-25T17:42:17.592Z,102114.34
2022-11-25T17:44:49.767Z,102121.78
2022-11-25T17:47:18.189Z,102126.59
2022-11-25T17:49:48.253Z,102123.41
2022-11-25T17:52:14.805Z,102133.69
2022-11-25T17:54:41.460Z,102135.66
2022-11-25T17:57:11.934Z,102137.00
2022-11-25T17:59:38.520Z,102139.22
2022-11-25T18:02:21.595Z,102146.63
2022-11-25T18:04:48.427Z,102153.03
2022-11-25T18:07:15.104Z,102161.91
2022-11-25T18:09:41.720Z,102164.03
2022-11-25T18:12:13.662Z,102175.09
2022-11-25T18:14:42.770Z,102169.69
2022-11-25T18:17:13.951Z,102177.44
2022-11-25T18:19:40.472Z,102186.81
2022-11-25T18:22:15.239Z,102189.53
2022-11-25T18:24:42.147Z,102187.78
2022-11-25T18:27:27.071Z,102193.22
2022-11-25T18:29:53.902Z,102194.34
2022-11-25T18:32:20.673Z,102202.75
2022-11-25T18:34:48.069Z,102204.22
2022-11-25T18:37:14.718Z,102209.78
2022-11-25T18:39:41.322Z,102205.31
2022-11-25T18:42:08.354Z,102214.34
2022-11-25T18:44:43.730Z,102210.75
2022-11-25T18:47:13.396Z,102213.63
2022-11-25T18:49:40.135Z,102216.19
2022-11-25T18:52:06.780Z,102220.38
2022-11-25T18:54:33.343Z,102228.16
2022-11-25T18:56:59.878Z,102234.31
2022-11-25T18:59:30.116Z,102230.97
2022-11-25T19:01:56.799Z,102237.38
2022-11-25T19:04:23.515Z,102231.81
2022-11-25T19:06:50.071Z,102237.88
2022-11-25T19:09:16.684Z,102247.41
2022-11-25T19:11:46.213Z,102241.97
2022-11-25T19:14:26.488Z,102245.91
2022-11-25T19:16:53.246Z,102248.75
2022-11-25T19:19:19.926Z,102248.03
2022-11-25T19:21:46.421Z,102252.94
2022-11-25T19:24:14.295Z,102260.59
2022-11-25T19:26:43.727Z,102255.69
2022-11-25T19:29:19.492Z,102259.38
2022-11-25T19:31:46.800Z,102266.06
2022-11-25T19:34:37.087Z,102278.03
2022-11-25T19:37:03.831Z,102279.03
2022-11-25T19:39:34.058Z,102283.00
2022-11-25T19:42:00.544Z,102281.13
2022-11-25T19:44:27.059Z,102289.66
2022-11-25T19:47:14.408Z,102288.69
2022-11-25T19:49:40.249Z,102293.97
2022-11-25T19:52:14.449Z,102301.38
2022-11-25T19:54:41.065Z,102306.19
2022-11-25T19:57:15.863Z,102306.78
2022-11-25T19:59:43.543Z,102308.78
2022-11-25T20:02:16.355Z,102312.75
2022-11-25T20:04:44.449Z,102320.38
2022-11-25T20:07:12.951Z,102315.56
2022-11-25T20:09:40.268Z,102320.63
2022-11-25T20:12:22.255Z,102328.38
2022-11-25T20:14:49.434Z,102327.78
2022-11-25T20:17:28.898Z,102336.78
2022-11-25T20:19:58.344Z,102342.69
2022-11-25T20:22:28.269Z,102345.91
2022-11-25T20:24:55.639Z,102355.25
2022-11-25T20:27:27.151Z,102355.13
2022-11-25T20:29:54.311Z,102361.56
2022-11-25T20:32:26.613Z,102369.03
2022-11-25T20:34:53.485Z,102367.44
2022-11-25T20:37:23.949Z,102372.75
2022-11-25T20:39:56.534Z,102373.50
2022-11-25T20:42:23.764Z,102382.97
2022-11-25T20:44:54.668Z,102384.44
2022-11-25T20:47:26.397Z,102387.63
2022-11-25T20:49:53.857Z,102398.59
2022-11-25T20:52:26.960Z,102398.22
2022-11-25T20:54:53.451Z,102407.13
2022-11-25T20:57:20.094Z,102403.03
2022-11-25T20:59:46.666Z,102407.84
2022-11-25T21:02:13.466Z,102414.63
2022-11-25T21:04:40.220Z,102416.69
2022-11-25T21:07:13.449Z,102426.81
2022-11-25T21:09:40.153Z,102430.94
2022-11-25T21:12:17.515Z,102432.28
2022-11-25T21:14:45.928Z,102437.94
2022-11-25T21:17:12.386Z,102432.97
2022-11-25T21:19:38.890Z,102437.78
2022-11-25T21:22:05.416Z,102445.28
2022-11-25T21:24:33.802Z,102448.22
2022-11-25T21:27:03.631Z,102453.22
2022-11-25T21:29:31.328Z,102466.13
2022-11-25T21:31:57.918Z,102472.75
2022-11-25T21:34:24.529Z,102475.78
2022-11-25T21:36:52.214Z,102475.25
2022-11-25T21:39:36.817Z,102467.69
2022-11-25T21:42:05.788Z,102478.63
2022-11-25T21:44:38.593Z,102477.25
2022-11-25T21:47:26.460Z,102473.13
2022-11-25T21:49:53.649Z,102477.78
2022-11-25T21:52:20.171Z,102484.19
2022-11-25T21:54:47.226Z,102487.97
2022-11-25T21:57:16.373Z,102491.22
2022-11-25T21:59:44.800Z,102492.53
2022-11-25T22:02:17.540Z,102499.88
2022-11-25T22:04:44.192Z,102495.34
2022-11-25T22:07:10.848Z,102501.31
2022-11-25T22:09:37.351Z,102498.69
2022-11-25T22:12:05.288Z,102498.34
2022-11-25T22:14:40.195Z,102503.22
2022-11-25T22:17:10.049Z,102509.28
2022-11-25T22:19:36.545Z,102493.69
2022-11-25T22:22:03.021Z,102500.94
2022-11-25T22:24:37.970Z,102498.22
2022-11-25T22:27:07.131Z,102512.88
2022-11-25T22:29:36.138Z,102505.84
2022-11-25T22:32:05.995Z,102515.56
2022-11-25T22:34:36.659Z,102520.81
2022-11-25T22:37:03.396Z,102515.16
2022-11-25T22:39:29.876Z,102515.69
2022-11-25T22:42:06.870Z,102517.56
2022-11-25T22:44:45.785Z,102523.59
2022-11-25T22:47:35.209Z,102532.16
2022-11-25T22:50:05.138Z,102539.41
2022-11-25T22:52:34.625Z,102538.44
2022-11-25T22:55:17.741Z,102535.53
2022-11-25T22:57:44.558Z,102542.66
2022-11-25T23:00:16.715Z,102547.22
2022-11-25T23:02:43.381Z,102549.16
2022-11-25T23:05:33.379Z,102556.22
2022-11-25T23:08:01.972Z,102559.38
2022-11-25T23:10:30.649Z,102555.97
2022-11-25T23:12:57.164Z,102560.75
2022-11-25T23:15:24.379Z,102567.91
2022-11-25T23:17:54.895Z,102570.41
2022-11-25T23:20:34.498Z,102571.56
2022-11-25T23:23:05.588Z,102580.03
2022-11-25T23:25:32.102Z,102576.09
2022-11-25T23:27:58.556Z,102583.88
2022-11-25T23:30:25.216Z,102575.53
2022-11-25T23:32:53.474Z,102575.97
2022-11-25T23:35:32.263Z,102579.25
2022-11-25T23:37:58.908Z,102582.41
2022-11-25T23:40:26.491Z,102581.97
2022-11-25T23:42:55.437Z,102587.28
2022-11-25T23:45:23.781Z,102581.53
2022-11-25T23:47:51.918Z,102581.19
2022-11-25T23:50:32.436Z,102585.25
2022-11-25T23:53:04.121Z,102584.78
2022-11-25T23:55:33.903Z,102588.22
2022-11-25T23:58:01.793Z,102586.69
